Time;durP1;ratioP1;P1;durP2;ratioP2;P2;SDS_P1;SDS_P2;PMS_P1;PMS_P2;Temp;Humidity;BMP_temperature;BMP_pressure;BME280_temperature;BME280_humidity;BME280_pressure;Samples;Min_cycle;Max_cycle;Signal;HPM_P1;HPM_P2
2021/04/28 00:01:46;;;;;;;10.40;9.40;;;;;;;9.02;58.57;94284.88;4988832;28;20377;-72
2021/04/28 00:04:11;;;;;;;9.60;8.60;;;;;;;8.90;58.84;94279.41;4989148;28;20042;-73
2021/04/28 00:06:36;;;;;;;10.13;8.57;;;;;;;8.96;58.15;94288.03;4989100;28;20055;-72
2021/04/28 00:09:05;;;;;;;14.20;8.68;;;;;;;9.10;58.38;94293.91;4988572;28;20497;-72
2021/04/28 00:11:30;;;;;;;10.63;8.93;;;;;;;9.09;57.34;94279.88;4989089;28;20495;-73
2021/04/28 00:13:56;;;;;;;10.23;9.15;;;;;;;9.15;57.34;94291.09;4991088;28;20033;-72
2021/04/28 00:16:22;;;;;;;11.18;9.60;;;;;;;8.94;57.69;94263.66;4989224;28;20055;-73
2021/04/28 00:18:48;;;;;;;10.25;8.80;;;;;;;9.08;57.57;94280.19;4988835;28;20408;-72
2021/04/28 00:21:14;;;;;;;12.10;8.95;;;;;;;8.98;57.30;94269.91;4988824;28;20117;-72
2021/04/28 00:23:40;;;;;;;9.52;8.60;;;;;;;9.01;57.87;94287.84;4988876;28;20090;-72
2021/04/28 00:26:05;;;;;;;9.90;8.90;;;;;;;8.80;58.69;94274.44;4990800;28;20088;-72
2021/04/28 00:28:31;;;;;;;14.13;9.32;;;;;;;8.67;58.12;94249.66;4985662;28;20038;-72
2021/04/28 00:30:56;;;;;;;11.38;9.30;;;;;;;8.78;58.51;94277.41;4988864;28;20377;-72
2021/04/28 00:33:21;;;;;;;11.32;9.35;;;;;;;8.63;58.35;94247.94;4988678;28;20118;-72
2021/04/28 00:35:47;;;;;;;10.82;9.75;;;;;;;8.78;58.30;94266.81;4988479;28;20022;-72
2021/04/28 00:38:12;;;;;;;11.45;10.30;;;;;;;8.65;58.44;94253.69;4990548;28;20037;-72
2021/04/28 00:40:40;;;;;;;10.73;9.63;;;;;;;8.62;58.94;94249.81;4988496;28;20504;-73
2021/04/28 00:43:06;;;;;;;11.07;9.90;;;;;;;8.71;59.23;94277.09;4988548;28;20527;-73
2021/04/28 00:45:33;;;;;;;11.65;10.02;;;;;;;8.66;58.76;94260.59;4988664;28;20500;-72
2021/04/28 00:48:00;;;;;;;11.90;10.05;;;;;;;8.74;58.62;94281.00;4991384;28;20034;-72
2021/04/28 00:50:31;;;;;;;11.63;9.70;;;;;;;8.67;58.87;94270.88;4994030;28;20030;-72
2021/04/28 00:52:58;;;;;;;11.63;9.07;;;;;;;8.71;58.83;94274.47;5007259;28;20093;-72
2021/04/28 00:55:24;;;;;;;10.85;9.73;;;;;;;8.56;59.31;94262.44;4991969;28;20034;-73
2021/04/28 00:57:50;;;;;;;10.75;9.23;;;;;;;8.59;58.98;94268.97;4991745;28;20030;-73
2021/04/28 01:00:17;;;;;;;10.77;9.77;;;;;;;8.65;59.74;94283.66;4992008;28;20049;-72
2021/04/28 01:02:43;;;;;;;15.88;11.10;;;;;;;8.60;58.97;94265.25;4991613;28;20050;-73
2021/04/28 01:05:09;;;;;;;13.88;10.48;;;;;;;8.48;60.09;94279.13;4993851;28;20392;-71
2021/04/28 01:07:36;;;;;;;14.85;10.85;;;;;;;8.40;59.93;94265.88;4991241;28;20030;-71
2021/04/28 01:10:04;;;;;;;12.57;9.80;;;;;;;8.48;59.66;94279.13;4991814;28;20043;-71
2021/04/28 01:12:30;;;;;;;15.18;10.25;;;;;;;8.38;60.01;94271.47;4991428;28;20093;-70
2021/04/28 01:14:56;;;;;;;12.23;10.63;;;;;;;8.32;59.84;94265.50;4991758;28;20042;-71
2021/04/28 01:17:21;;;;;;;13.10;10.07;;;;;;;8.33;60.13;94272.38;4992142;28;20080;-71
2021/04/28 01:19:47;;;;;;;12.80;9.77;;;;;;;8.14;59.95;94248.06;5012409;23;20197;-60
2021/04/28 01:22:13;;;;;;;17.33;10.77;;;;;;;8.24;60.37;94261.00;4993084;28;20097;-59
2021/04/28 01:24:39;;;;;;;11.15;9.88;;;;;;;8.07;61.20;94242.41;4973233;28;20039;-59
2021/04/28 01:27:21;;;;;;;14.02;10.95;;;;;;;7.85;61.53;94218.72;4973040;28;20031;-59
2021/04/28 01:29:47;;;;;;;16.40;10.43;;;;;;;8.24;60.86;94276.09;4977915;28;20035;-59
2021/04/28 01:32:16;;;;;;;11.15;9.95;;;;;;;7.96;61.04;94244.59;5028977;28;20026;-59
2021/04/28 01:34:42;;;;;;;11.57;10.38;;;;;;;8.19;61.16;94270.94;5012092;28;20473;-59
2021/04/28 01:37:09;;;;;;;11.85;10.70;;;;;;;8.16;62.01;94277.66;5011757;28;20038;-59
2021/04/28 01:39:35;;;;;;;11.18;10.13;;;;;;;8.18;61.65;94269.38;5010425;28;20061;-59
2021/04/28 01:42:02;;;;;;;12.55;11.25;;;;;;;8.13;61.52;94262.38;5011629;28;20074;-59
2021/04/28 01:44:28;;;;;;;15.32;11.15;;;;;;;8.13;61.58;94266.88;5013690;28;20480;-59
2021/04/28 01:46:54;;;;;;;13.70;11.15;;;;;;;8.10;61.50;94265.66;5012015;28;20103;-59
2021/04/28 01:49:21;;;;;;;16.92;11.05;;;;;;;8.08;61.21;94281.06;5011411;28;20042;-59
2021/04/28 01:51:47;;;;;;;13.85;11.25;;;;;;;7.95;61.42;94263.44;5011155;28;20050;-59
2021/04/28 01:54:18;;;;;;;11.88;10.75;;;;;;;7.71;62.35;94243.44;5026818;28;20056;-59
2021/04/28 01:56:47;;;;;;;11.82;10.60;;;;;;;7.97;61.54;94274.50;5011392;28;20026;-59
2021/04/28 01:59:14;;;;;;;12.80;11.50;;;;;;;7.96;61.73;94273.72;5013185;28;20029;-59
2021/04/28 02:01:43;;;;;;;12.63;11.38;;;;;;;7.90;62.12;94285.53;5011264;28;20531;-60
2021/04/28 02:04:09;;;;;;;14.35;11.07;;;;;;;7.80;62.64;94265.41;5011310;28;20038;-60
2021/04/28 02:06:38;;;;;;;12.85;11.65;;;;;;;7.78;61.98;94261.53;5011534;28;20038;-60
2021/04/28 02:09:04;;;;;;;13.30;11.95;;;;;;;7.72;62.21;94260.09;5011202;28;20499;-59
2021/04/28 02:11:30;;;;;;;13.30;12.00;;;;;;;7.76;62.17;94261.81;5011157;28;20495;-61
2021/04/28 02:13:56;;;;;;;14.38;12.15;;;;;;;7.61;62.79;94249.00;5013189;28;20109;-60
2021/04/28 02:16:22;;;;;;;13.25;11.93;;;;;;;7.65;62.81;94265.06;5011177;28;20461;-61
2021/04/28 02:18:48;;;;;;;14.75;12.60;;;;;;;7.48;63.28;94237.44;5025945;28;20045;-60
2021/04/28 02:21:14;;;;;;;14.15;12.65;;;;;;;7.55;63.17;94253.66;5010423;28;20076;-60
2021/04/28 02:23:42;;;;;;;17.35;12.85;;;;;;;7.42;62.98;94237.88;5026354;28;20044;-60
2021/04/28 02:26:07;;;;;;;18.60;13.05;;;;;;;7.51;63.83;94257.22;5013080;28;20046;-59
2021/04/28 02:28:33;;;;;;;15.48;12.48;;;;;;;7.36;63.19;94239.88;5010717;28;20519;-60
2021/04/28 02:30:59;;;;;;;13.68;12.38;;;;;;;7.46;63.25;94254.69;5010690;28;20038;-60
2021/04/28 02:33:26;;;;;;;14.57;13.18;;;;;;;7.45;63.78;94251.28;5009753;28;20042;-59
2021/04/28 02:35:55;;;;;;;18.35;12.88;;;;;;;7.46;63.64;94254.69;5010419;28;20026;-59
2021/04/28 02:38:28;;;;;;;17.73;12.02;;;;;;;7.29;64.14;94244.84;5012440;28;20041;-60
2021/04/28 02:40:53;;;;;;;;;;;;;;;7.41;64.48;94255.63;5026982;28;20034;-58
2021/04/28 02:43:21;;;;;;;16.13;12.73;;;;;;;7.35;64.27;94248.91;5025492;28;20014;-59
2021/04/28 02:45:49;;;;;;;15.90;13.05;;;;;;;7.37;63.89;94252.03;5010859;28;20030;-59
2021/04/28 02:48:17;;;;;;;15.00;13.32;;;;;;;7.33;63.96;94245.78;5009028;28;20041;-60
2021/04/28 02:50:42;;;;;;;14.95;13.27;;;;;;;7.05;64.22;94213.44;5010258;28;20113;-59
2021/04/28 02:53:12;;;;;;;16.20;13.02;;;;;;;7.25;64.07;94249.94;5012317;28;20519;-60
2021/04/28 02:55:38;;;;;;;16.60;12.45;;;;;;;7.03;64.38;94236.78;5010735;28;20030;-60
2021/04/28 02:58:05;;;;;;;23.02;13.73;;;;;;;7.08;64.64;94236.66;5010377;28;20080;-60
2021/04/28 03:00:31;;;;;;;17.38;14.02;;;;;;;7.09;64.52;94235.56;5009075;28;20116;-59
2021/04/28 03:02:59;;;;;;;16.50;13.30;;;;;;;6.84;66.73;94222.97;5010250;28;20164;-60
2021/04/28 03:05:25;;;;;;;15.13;13.25;;;;;;;7.04;65.85;94240.97;5012409;28;20069;-61
2021/04/28 03:07:56;;;;;;;17.00;13.52;;;;;;;6.91;66.34;94218.84;5010120;28;20403;-61
2021/04/28 03:10:22;;;;;;;16.40;14.25;;;;;;;6.85;65.44;94200.75;5009609;28;20041;-60
2021/04/28 03:12:48;;;;;;;16.52;13.48;;;;;;;7.03;65.52;94232.25;5010231;28;20405;-60
2021/04/28 03:15:16;;;;;;;15.00;13.13;;;;;;;7.04;66.31;94240.97;5010342;28;20523;-61
2021/04/28 03:17:42;;;;;;;15.98;13.32;;;;;;;7.11;66.19;94248.47;5009815;28;20033;-59
2021/04/28 03:20:09;;;;;;;15.43;13.82;;;;;;;7.11;65.69;94240.53;5011671;28;20030;-60
2021/04/28 03:22:37;;;;;;;16.42;13.55;;;;;;;7.04;65.14;94235.69;5009766;28;20049;-59
2021/04/28 03:25:04;;;;;;;18.35;15.13;;;;;;;6.61;65.19;94182.59;5025262;28;20627;-60
2021/04/28 03:27:30;;;;;;;19.38;14.57;;;;;;;6.68;65.51;94199.56;5008665;28;20080;-60
2021/04/28 03:29:55;;;;;;;15.63;13.95;;;;;;;6.87;65.78;94235.59;5025220;28;20108;-60
2021/04/28 03:32:21;;;;;;;15.65;14.13;;;;;;;6.70;65.94;94223.81;5011758;28;20024;-60
2021/04/28 03:34:46;;;;;;;15.85;14.27;;;;;;;6.81;66.10;94234.13;5010055;28;20496;-61
2021/04/28 03:37:12;;;;;;;17.88;14.00;;;;;;;6.74;66.33;94229.28;5009847;28;20052;-61
2021/04/28 03:39:37;;;;;;;24.95;17.02;;;;;;;6.82;66.56;94251.59;5025019;28;20427;-60
2021/04/28 03:42:03;;;;;;;16.88;14.02;;;;;;;6.30;66.77;94190.47;5008476;28;20041;-60
2021/04/28 03:44:29;;;;;;;16.40;14.68;;;;;;;6.47;67.22;94224.91;5024981;28;20116;-62
2021/04/28 03:46:55;;;;;;;17.27;14.85;;;;;;;6.61;66.69;94241.50;5011509;28;20076;-59
2021/04/28 03:49:21;;;;;;;22.63;15.15;;;;;;;6.69;66.55;94246.03;5009595;28;20050;-59
2021/04/28 03:51:46;;;;;;;21.02;15.20;;;;;;;6.42;66.74;94217.09;5009328;28;20034;-60
2021/04/28 03:54:13;;;;;;;16.25;14.55;;;;;;;5.84;66.49;94130.75;5009777;28;20503;-61
2021/04/28 03:56:39;;;;;;;16.88;14.50;;;;;;;6.65;67.61;94253.00;5009831;28;20379;-61
2021/04/28 03:59:06;;;;;;;18.77;14.75;;;;;;;6.56;67.60;94233.69;5011328;28;20376;-60
2021/04/28 04:01:31;;;;;;;16.65;14.85;;;;;;;6.68;67.14;94249.78;5024587;28;20034;-59
2021/04/28 04:03:56;;;;;;;20.50;15.73;;;;;;;6.64;66.94;94240.88;5009701;28;20041;-59
2021/04/28 04:06:22;;;;;;;21.70;15.38;;;;;;;6.72;67.79;94250.75;5009825;28;20526;-59
2021/04/28 04:08:47;;;;;;;20.30;14.80;;;;;;;6.75;67.76;94255.41;5009304;28;20042;-60
2021/04/28 04:11:13;;;;;;;16.35;13.45;;;;;;;6.81;66.61;94263.22;5010114;28;20034;-61
2021/04/28 04:13:38;;;;;;;23.83;15.98;;;;;;;6.54;67.27;94211.28;5008458;28;20046;-60
2021/04/28 04:16:04;;;;;;;17.33;14.90;;;;;;;6.71;66.92;94230.69;5009584;28;20038;-61
2021/04/28 04:18:30;;;;;;;19.25;14.05;;;;;;;6.88;66.22;94247.72;5008062;28;20049;-60
2021/04/28 04:20:55;;;;;;;16.63;14.20;;;;;;;6.92;67.00;94251.34;5010460;28;20547;-59
2021/04/28 04:23:20;;;;;;;18.60;15.20;;;;;;;6.80;66.69;94227.28;5013625;28;20053;-60
2021/04/28 04:25:46;;;;;;;25.70;15.38;;;;;;;6.97;66.66;94252.00;5013216;28;20488;-59
2021/04/28 04:28:11;;;;;;;18.83;15.73;;;;;;;6.92;66.73;94241.53;5011719;28;20092;-59
2021/04/28 04:30:37;;;;;;;20.95;14.85;;;;;;;7.07;66.14;94263.41;5013271;28;20065;-60
2021/04/28 04:33:02;;;;;;;15.93;14.32;;;;;;;7.15;66.78;94257.34;5027999;28;20480;-60
2021/04/28 04:35:28;;;;;;;21.58;13.13;;;;;;;7.16;66.11;94235.13;5015051;28;20026;-60
2021/04/28 04:37:53;;;;;;;15.20;12.18;;;;;;;7.23;65.88;94248.69;5013035;28;20084;-60
2021/04/28 04:40:18;;;;;;;16.42;12.82;;;;;;;7.47;65.72;94243.03;5013026;28;20158;-59
2021/04/28 04:42:44;;;;;;;25.23;14.60;;;;;;;7.49;65.11;94219.72;5012777;28;20088;-59
2021/04/28 04:45:10;;;;;;;14.52;12.98;;;;;;;7.91;64.79;94250.03;5012879;28;20066;-59
2021/04/28 04:47:36;;;;;;;19.48;13.77;;;;;;;8.10;64.96;94259.56;5012638;28;20018;-59
2021/04/28 04:50:02;;;;;;;20.67;12.70;;;;;;;8.27;63.72;94252.41;5014224;28;20164;-59
2021/04/28 04:52:28;;;;;;;13.35;11.85;;;;;;;8.29;63.52;94226.41;5012663;28;20069;-59
2021/04/28 04:54:53;;;;;;;22.25;14.20;;;;;;;8.43;62.63;94222.84;5012790;28;20042;-59
2021/04/28 04:57:18;;;;;;;17.45;13.10;;;;;;;8.69;62.07;94242.16;5012280;28;20030;-59
2021/04/28 04:59:44;;;;;;;17.20;12.77;;;;;;;8.79;61.77;94230.44;5012713;28;20033;-59
2021/04/28 05:02:09;;;;;;;17.95;13.05;;;;;;;8.98;61.35;94249.47;5014183;28;20033;-59
2021/04/28 05:04:35;;;;;;;16.27;11.90;;;;;;;9.14;61.06;94255.03;5012604;28;20077;-60
2021/04/28 05:07:00;;;;;;;19.13;13.52;;;;;;;9.30;60.42;94252.66;5012197;28;20048;-60
2021/04/28 05:09:26;;;;;;;13.63;12.10;;;;;;;9.43;60.44;94259.66;5012360;28;20038;-61
2021/04/28 05:11:52;;;;;;;17.65;12.25;;;;;;;9.31;59.00;94225.03;5012044;28;20045;-60
2021/04/28 05:14:17;;;;;;;20.00;14.05;;;;;;;9.63;58.61;94245.69;5014200;28;20022;-59
2021/04/28 05:16:42;;;;;;;19.23;13.77;;;;;;;9.52;58.66;94235.72;5012149;28;20132;-60
2021/04/28 05:19:08;;;;;;;17.70;13.55;;;;;;;9.82;58.63;94242.59;5027161;28;20396;-60
2021/04/28 05:21:34;;;;;;;16.90;13.50;;;;;;;10.08;58.17;94252.31;5011543;28;20048;-61
2021/04/28 05:24:00;;;;;;;17.15;13.68;;;;;;;9.83;57.26;94230.13;5012120;28;20046;-59
2021/04/28 05:26:27;;;;;;;19.85;13.85;;;;;;;10.07;57.19;94221.53;5014110;28;20392;-59
2021/04/28 05:28:52;;;;;;;16.65;12.80;;;;;;;10.33;57.59;94246.09;5011950;28;20104;-59
2021/04/28 05:31:18;;;;;;;18.45;13.35;;;;;;;10.45;56.80;94244.63;5011885;28;20042;-59
2021/04/28 05:33:43;;;;;;;16.88;13.10;;;;;;;10.59;56.09;94224.63;5026441;28;20042;-59
2021/04/28 05:36:09;;;;;;;16.50;13.10;;;;;;;10.89;55.69;94254.56;5010691;28;20038;-59
2021/04/28 05:38:35;;;;;;;16.38;12.75;;;;;;;10.93;55.52;94225.41;5011376;28;20022;-60
2021/04/28 05:41:00;;;;;;;15.00;12.63;;;;;;;11.25;54.66;94260.31;5013490;28;20045;-59
2021/04/28 05:43:26;;;;;;;15.80;12.85;;;;;;;11.31;54.91;94243.84;5011211;28;20376;-59
2021/04/28 05:45:52;;;;;;;15.52;13.82;;;;;;;11.35;54.22;94222.63;5011557;28;20042;-59
2021/04/28 05:48:17;;;;;;;14.00;12.70;;;;;;;11.70;53.97;94250.41;5026408;28;20060;-60
2021/04/28 05:50:44;;;;;;;16.38;12.77;;;;;;;11.80;52.87;94251.88;5011092;28;20404;-60
2021/04/28 05:53:10;;;;;;;18.42;12.82;;;;;;;11.89;53.54;94247.25;5013255;28;20100;-60
2021/04/28 05:55:36;;;;;;;16.83;13.85;;;;;;;11.99;52.77;94238.03;5011551;28;20054;-60
2021/04/28 05:58:02;;;;;;;19.08;12.93;;;;;;;12.08;52.25;94233.38;5011216;28;20045;-60
2021/04/28 06:00:28;;;;;;;16.65;13.30;;;;;;;12.28;52.06;94249.53;5011567;28;20403;-59
2021/04/28 06:02:54;;;;;;;24.88;13.23;;;;;;;12.41;51.75;94245.75;5011173;28;20038;-60
2021/04/28 06:05:20;;;;;;;15.15;13.60;;;;;;;12.47;51.38;94233.72;5013155;28;20080;-59
2021/04/28 06:07:45;;;;;;;17.02;12.60;;;;;;;12.61;50.79;94233.38;5011083;28;20128;-60
2021/04/28 06:10:12;;;;;;;15.70;13.32;;;;;;;12.72;50.93;94245.09;5011197;28;20552;-60
2021/04/28 06:12:38;;;;;;;15.30;12.27;;;;;;;12.72;50.71;94231.75;5011065;28;20056;-59
2021/04/28 06:15:04;;;;;;;18.50;12.82;;;;;;;12.86;50.46;94240.16;5011246;28;20492;-59
2021/04/28 06:17:29;;;;;;;17.15;12.73;;;;;;;12.81;50.11;94236.97;5010684;28;20068;-64
2021/04/28 06:19:55;;;;;;;18.45;13.50;;;;;;;12.82;50.03;94211.81;5012330;28;20085;-60
2021/04/28 06:22:20;;;;;;;17.13;13.10;;;;;;;12.93;49.85;94243.03;5025937;28;20037;-62
2021/04/28 06:24:47;;;;;;;16.67;13.02;;;;;;;13.02;49.79;94237.53;5010910;28;20038;-60
2021/04/28 06:27:12;;;;;;;16.02;13.32;;;;;;;12.93;49.58;94219.00;5007381;28;20450;-62
2021/04/28 06:29:38;;;;;;;16.33;12.77;;;;;;;13.15;49.35;94231.00;5010613;28;20029;-60
2021/04/28 06:32:03;;;;;;;16.52;12.45;;;;;;;13.15;48.99;94230.22;5032117;28;20029;-59
2021/04/28 06:34:29;;;;;;;17.55;12.75;;;;;;;13.27;49.06;94246.25;5030573;28;20044;-61
2021/04/28 06:36:54;;;;;;;18.80;13.02;;;;;;;13.42;48.44;94240.16;5030541;28;20038;-60
2021/04/28 06:39:20;;;;;;;18.60;12.80;;;;;;;13.53;48.16;94232.41;5030384;28;20029;-60
2021/04/28 06:41:45;;;;;;;13.98;12.68;;;;;;;13.70;47.99;94226.69;5029530;28;20414;-60
2021/04/28 06:44:10;;;;;;;24.30;13.55;;;;;;;13.90;47.55;94246.25;5032092;28;20117;-60
2021/04/28 06:46:36;;;;;;;16.05;12.32;;;;;;;14.02;47.36;94248.06;5030461;28;20040;-60
2021/04/28 06:49:02;;;;;;;13.75;12.30;;;;;;;13.97;46.97;94205.53;5029866;28;20368;-59
2021/04/28 06:51:27;;;;;;;13.13;11.48;;;;;;;14.26;46.67;94231.03;5029813;28;20045;-58
2021/04/28 06:53:53;;;;;;;15.85;12.05;;;;;;;13.72;45.99;94146.19;5045626;28;20048;-58
2021/04/28 06:56:18;;;;;;;17.45;11.35;;;;;;;14.55;45.79;94241.25;5032170;28;20028;-60
2021/04/28 06:58:45;;;;;;;17.77;11.60;;;;;;;14.47;46.01;94217.34;5044704;28;20512;-59
2021/04/28 07:01:11;;;;;;;11.32;10.32;;;;;;;14.60;45.53;94210.00;5029915;28;20402;-59
2021/04/28 07:03:37;;;;;;;18.80;10.73;;;;;;;14.89;45.96;94249.56;5030110;28;20037;-59
2021/04/28 07:06:03;;;;;;;15.88;11.10;;;;;;;15.17;45.12;94248.59;5029872;28;20038;-59
2021/04/28 07:08:28;;;;;;;13.38;10.85;;;;;;;15.38;44.90;94232.91;5029765;28;20029;-61
2021/04/28 07:10:53;;;;;;;11.90;10.07;;;;;;;15.75;44.36;94235.09;5047364;28;20021;-58
2021/04/28 07:13:19;;;;;;;12.32;11.05;;;;;;;16.10;43.29;94250.97;5029876;28;20039;-59
2021/04/28 07:15:44;;;;;;;14.40;12.02;;;;;;;15.68;42.99;94253.75;5030096;28;20501;-60
2021/04/28 07:18:10;;;;;;;14.60;11.48;;;;;;;16.13;42.69;94249.50;5029088;28;20455;-59
2021/04/28 07:20:35;;;;;;;13.30;11.90;;;;;;;16.09;43.07;94246.75;5029209;28;20043;-59
2021/04/28 07:23:00;;;;;;;15.15;11.57;;;;;;;16.15;42.04;94239.94;5031191;28;20025;-59
2021/04/28 07:25:26;;;;;;;13.90;12.10;;;;;;;16.39;42.21;94244.13;5029676;28;20399;-59
2021/04/28 07:27:51;;;;;;;13.90;11.35;;;;;;;16.66;41.86;94238.72;5029553;28;20045;-60
2021/04/28 07:30:18;;;;;;;21.27;12.10;;;;;;;16.57;41.88;94239.75;5029478;28;20147;-59
2021/04/28 07:32:43;;;;;;;15.75;12.45;;;;;;;16.74;41.32;94246.53;5029206;28;20384;-59
2021/04/28 07:35:10;;;;;;;13.25;10.80;;;;;;;16.83;41.13;94248.94;5031652;28;20075;-59
2021/04/28 07:37:35;;;;;;;14.75;11.65;;;;;;;16.97;41.07;94249.09;5028218;28;20038;-59
2021/04/28 07:40:02;;;;;;;12.60;11.32;;;;;;;16.91;40.99;94225.63;5029629;28;20041;-59
2021/04/28 07:42:27;;;;;;;14.65;11.45;;;;;;;16.04;41.71;94223.69;5029262;28;20049;-60
2021/04/28 07:44:53;;;;;;;23.08;12.38;;;;;;;16.83;41.59;94247.00;5029778;28;20042;-60
2021/04/28 07:47:18;;;;;;;17.17;11.07;;;;;;;17.03;40.53;94241.50;5031262;28;20025;-59
2021/04/28 07:49:44;;;;;;;17.65;11.63;;;;;;;16.97;40.98;94238.38;5029235;28;20042;-59
2021/04/28 07:52:10;;;;;;;19.25;12.55;;;;;;;17.02;40.79;94239.97;5029285;28;20461;-61
2021/04/28 07:54:35;;;;;;;14.07;11.18;;;;;;;16.75;39.66;94245.41;5029342;28;20403;-61
2021/04/28 07:57:01;;;;;;;18.40;11.50;;;;;;;16.63;39.73;94249.06;5032700;28;20033;-60
2021/04/28 07:59:27;;;;;;;16.65;11.85;;;;;;;16.10;41.32;94245.59;5035538;28;20378;-61
2021/04/28 08:01:52;;;;;;;17.48;12.40;;;;;;;16.15;40.70;94255.25;5033372;28;20035;-60
2021/04/28 08:04:20;;;;;;;18.30;11.75;;;;;;;16.14;40.29;94251.03;5033488;28;20052;-61
2021/04/28 08:06:46;;;;;;;15.25;12.43;;;;;;;16.42;40.31;94240.69;5033298;28;20098;-61
2021/04/28 08:09:12;;;;;;;18.67;11.32;;;;;;;16.43;40.10;94244.94;5033296;28;20029;-61
2021/04/28 08:11:37;;;;;;;23.35;12.38;;;;;;;16.45;39.51;94234.59;5048548;28;20028;-64
2021/04/28 08:14:03;;;;;;;22.45;11.55;;;;;;;15.99;40.45;94156.94;5035097;28;20025;-63
2021/04/28 08:16:31;;;;;;;15.10;12.23;;;;;;;16.82;39.87;94250.84;5048496;28;20434;-63
2021/04/28 08:18:57;;;;;;;20.85;12.73;;;;;;;16.55;40.01;94233.97;5032867;28;20049;-63
2021/04/28 08:21:22;;;;;;;20.40;12.65;;;;;;;16.73;39.61;94247.66;5047779;28;20042;-62
2021/04/28 08:23:47;;;;;;;19.60;11.07;;;;;;;16.82;39.05;94250.06;5033080;28;20056;-64
2021/04/28 08:26:15;;;;;;;12.43;10.38;;;;;;;16.54;39.72;94221.69;5034989;28;20513;-61
2021/04/28 08:28:43;;;;;;;40.65;13.50;;;;;;;17.04;39.87;94246.50;5032467;28;20787;-61
2021/04/28 08:31:10;;;;;;;32.15;13.60;;;;;;;17.22;38.94;94243.25;5048102;28;20087;-60
2021/04/28 08:33:36;;;;;;;33.17;12.90;;;;;;;17.01;38.99;94212.31;5032741;28;20038;-61
2021/04/28 08:36:02;;;;;;;25.05;12.43;;;;;;;17.28;39.02;94247.91;5032638;28;20044;-61
2021/04/28 08:38:28;;;;;;;17.63;12.00;;;;;;;16.42;39.79;94229.97;5033170;28;20025;-61
2021/04/28 08:40:54;;;;;;;15.35;12.40;;;;;;;16.31;39.86;94251.28;5048450;28;20044;-59
2021/04/28 08:43:23;;;;;;;13.60;12.25;;;;;;;16.33;40.15;94230.25;5032383;28;20037;-64
2021/04/28 08:45:49;;;;;;;17.35;11.93;;;;;;;16.53;39.65;94230.09;5032438;28;20038;-62
2021/04/28 08:48:15;;;;;;;17.70;11.50;;;;;;;16.91;39.21;94222.94;5032243;28;20556;-63
2021/04/28 08:50:42;;;;;;;12.98;11.45;;;;;;;16.20;40.40;94244.22;5031997;28;20057;-62
2021/04/28 08:53:11;;;;;;;15.38;11.18;;;;;;;16.84;39.29;94218.28;5034317;28;20025;-63
2021/04/28 08:55:36;;;;;;;17.55;10.38;;;;;;;16.60;39.90;94195.31;5031853;28;20111;-62
2021/04/28 08:58:02;;;;;;;19.40;11.75;;;;;;;16.67;39.22;94199.97;5031894;28;20069;-61
2021/04/28 09:00:27;;;;;;;17.55;10.82;;;;;;;16.87;39.09;94244.38;5032536;28;20107;-60
2021/04/28 09:02:55;;;;;;;14.25;11.23;;;;;;;16.78;39.25;94230.44;5030581;28;20455;-62
2021/04/28 09:05:21;;;;;;;15.27;10.52;;;;;;;17.08;38.70;94215.06;5049525;28;20463;-62
2021/04/28 09:07:46;;;;;;;13.55;11.13;;;;;;;15.72;40.86;94198.28;5029396;28;20041;-61
2021/04/28 09:10:27;;;;;;;16.08;10.85;;;;;;;16.34;39.39;94190.75;5031074;28;20033;-59
2021/04/28 09:13:01;;;;;;;23.70;11.30;;;;;;;16.79;39.30;94229.34;5031943;28;20107;-64
2021/04/28 09:15:41;;;;;;;12.43;11.13;;;;;;;16.71;39.27;94216.91;5030859;28;20506;-65
2021/04/28 09:18:18;;;;;;;12.52;10.20;;;;;;;17.13;38.22;94222.81;5031642;28;20138;-64
2021/04/28 09:20:51;;;;;;;18.98;11.35;;;;;;;16.76;38.53;94211.25;5031590;28;20112;-63
2021/04/28 09:23:30;;;;;;;12.27;11.18;;;;;;;16.80;38.60;94206.72;5033595;28;20125;-61
2021/04/28 09:25:56;;;;;;;15.95;11.05;;;;;;;17.11;37.85;94227.78;5032263;28;20510;-61
2021/04/28 09:28:32;;;;;;;14.95;10.90;;;;;;;17.04;37.32;94229.59;5031543;28;20528;-61
2021/04/28 09:31:07;;;;;;;11.73;10.13;;;;;;;17.11;37.32;94227.78;5031513;28;20136;-62
2021/04/28 09:33:32;;;;;;;16.67;11.35;;;;;;;17.18;38.23;94227.09;5046935;28;20128;-61
2021/04/28 09:35:59;;;;;;;15.00;11.60;;;;;;;17.05;38.41;94185.50;5031525;28;20128;-61
2021/04/28 09:38:24;;;;;;;13.02;10.95;;;;;;;17.19;38.97;94225.16;5033297;28;20386;-61
2021/04/28 09:40:51;;;;;;;13.48;10.73;;;;;;;17.28;37.16;94194.16;5046363;28;20136;-61
2021/04/28 09:43:17;;;;;;;17.40;10.77;;;;;;;17.35;37.03;94214.97;5031161;28;20038;-62
2021/04/28 09:45:45;;;;;;;11.18;10.05;;;;;;;17.22;36.75;94208.31;5031729;28;20045;-62
2021/04/28 09:48:22;;;;;;;15.15;10.70;;;;;;;17.27;36.88;94181.09;5031006;28;20033;-65
2021/04/28 09:50:48;;;;;;;17.63;10.73;;;;;;;17.46;37.41;94182.84;5030463;28;20470;-60
2021/04/28 09:53:26;;;;;;;13.50;10.18;;;;;;;17.99;37.06;94212.09;5033143;28;20053;-63
2021/04/28 09:55:53;;;;;;;15.75;10.57;;;;;;;18.02;36.88;94212.13;5029820;28;20491;-60
2021/04/28 09:58:48;;;;;;;13.40;10.85;;;;;;;17.84;36.16;94208.53;5028672;28;20045;-60
2021/04/28 10:01:29;;;;;;;11.52;9.77;;;;;;;17.52;36.43;94205.53;5031057;28;20552;-60
2021/04/28 10:03:54;;;;;;;15.15;12.07;;;;;;;17.53;36.70;94177.50;5031029;28;20064;-60
2021/04/28 10:06:49;;;;;;;14.95;10.15;;;;;;;17.14;36.50;94070.41;5031069;28;20220;-62
2021/04/28 10:09:34;;;;;;;14.50;10.35;;;;;;;18.06;35.90;94201.38;5030416;28;20044;-67
2021/04/28 10:12:02;;;;;;;14.00;9.85;;;;;;;18.30;35.08;94175.78;5030929;28;20045;-63
2021/04/28 10:14:29;;;;;;;11.45;9.80;;;;;;;18.65;33.98;94207.50;5030614;28;20036;-61
2021/04/28 10:16:55;;;;;;;10.13;9.00;;;;;;;18.58;32.03;94189.41;5047968;28;20028;-62
2021/04/28 10:19:25;;;;;;;10.50;9.60;;;;;;;18.27;31.37;94188.09;5030117;28;20037;-62
2021/04/28 10:21:51;;;;;;;10.25;9.25;;;;;;;18.40;31.45;94189.28;5030092;28;20433;-62
2021/04/28 10:24:21;;;;;;;12.80;9.60;;;;;;;18.63;31.61;94193.63;5030539;28;20021;-63
2021/04/28 10:26:48;;;;;;;10.57;9.32;;;;;;;18.08;32.01;94186.41;5030680;28;20026;-62
2021/04/28 10:29:18;;;;;;;11.90;9.68;;;;;;;17.98;31.82;94187.13;5032368;28;20490;-62
2021/04/28 10:31:45;;;;;;;13.27;9.93;;;;;;;17.30;33.66;94188.41;5030148;28;20124;-62
2021/04/28 10:34:13;;;;;;;10.90;9.48;;;;;;;17.21;33.81;94155.72;5030003;28;20495;-62
2021/04/28 10:36:42;;;;;;;12.80;10.95;;;;;;;17.69;33.68;94183.41;5030460;28;20049;-62
2021/04/28 10:39:09;;;;;;;15.00;10.55;;;;;;;17.91;33.14;94177.09;5029794;28;20050;-62
2021/04/28 10:41:44;;;;;;;11.13;10.13;;;;;;;18.34;32.65;94177.34;5028794;28;20036;-63
2021/04/28 10:44:31;;;;;;;12.52;10.10;;;;;;;18.68;32.07;94180.63;5032138;28;20025;-61
2021/04/28 10:47:26;;;;;;;12.38;9.65;;;;;;;18.58;32.38;94181.31;5030225;28;20128;-63
2021/04/28 10:50:19;;;;;;;11.50;10.30;;;;;;;18.38;32.32;94180.06;5044908;28;20092;-62
2021/04/28 10:52:57;;;;;;;14.85;9.88;;;;;;;18.68;31.39;94175.25;5029797;28;20069;-61
2021/04/28 10:55:40;;;;;;;10.18;9.13;;;;;;;18.38;31.91;94180.06;5029978;28;20033;-62
2021/04/28 10:58:25;;;;;;;9.98;8.98;;;;;;;18.93;31.69;94180.69;5044715;28;20034;-61
2021/04/28 11:01:17;;;;;;;13.88;9.07;;;;;;;19.15;30.84;94178.84;5029745;28;20048;-62
2021/04/28 11:03:49;;;;;;;10.15;9.15;;;;;;;19.17;30.17;94173.06;5029284;28;20060;-63
2021/04/28 11:06:25;;;;;;;11.45;9.90;;;;;;;19.09;30.14;94171.50;5029892;28;20131;-62
2021/04/28 11:11:38;;;;;;;9.77;8.77;;;;;;;18.84;29.63;94166.84;5031630;28;20055;-61
2021/04/28 11:14:19;;;;;;;14.25;8.82;;;;;;;18.80;30.70;94170.66;5028596;28;20037;-61
2021/04/28 11:16:49;;;;;;;17.00;9.83;;;;;;;19.49;30.14;94162.34;5044850;28;20060;-62
2021/04/28 11:19:21;;;;;;;18.35;10.00;;;;;;;19.45;29.53;94159.66;5029356;28;20816;-62
2021/04/28 11:22:07;;;;;;;13.02;10.45;;;;;;;19.38;28.93;94166.94;5028862;28;20049;-61
2021/04/28 11:24:55;;;;;;;11.63;9.93;;;;;;;19.74;28.85;94170.47;5029481;28;20124;-61
2021/04/28 11:27:42;;;;;;;13.50;8.90;;;;;;;18.78;30.86;94160.25;5029304;28;20115;-62